createdAt,value
2023-02-16T00:00:48.694Z,6.33
2023-02-16T00:03:22.465Z,6.32
2023-02-16T00:05:51.115Z,6.14
2023-02-16T00:08:18.108Z,6.05
2023-02-16T00:11:04.936Z,6.12
2023-02-16T00:13:53.061Z,6.12
2023-02-16T00:16:24.879Z,6.13
2023-02-16T00:18:52.898Z,6.14
2023-02-16T00:21:21.240Z,6.13
2023-02-16T00:23:48.905Z,6.12
2023-02-16T00:26:25.625Z,6.08
2023-02-16T00:28:58.651Z,6.05
2023-02-16T00:31:29.211Z,6.04
2023-02-16T00:33:56.827Z,6.03
2023-02-16T00:36:24.295Z,6.01
2023-02-16T00:38:52.033Z,5.99
2023-02-16T00:41:41.463Z,5.95
2023-02-16T00:44:30.942Z,5.92
2023-02-16T00:47:02.420Z,5.91
2023-02-16T00:49:29.497Z,5.90
2023-02-16T00:51:57.113Z,5.87
2023-02-16T00:54:24.457Z,5.85
2023-02-16T00:56:52.218Z,5.83
2023-02-16T00:59:22.524Z,5.78
2023-02-16T01:01:50.326Z,5.76
2023-02-16T01:04:23.872Z,5.75
2023-02-16T01:07:09.642Z,5.73
2023-02-16T01:09:55.450Z,5.72
2023-02-16T01:12:22.845Z,5.69
2023-02-16T01:14:54.833Z,5.68
2023-02-16T01:17:24.462Z,5.64
2023-02-16T01:19:51.498Z,5.61
2023-02-16T01:22:18.658Z,5.60
2023-02-16T01:24:45.965Z,5.59
2023-02-16T01:27:14.375Z,5.56
2023-02-16T01:29:41.671Z,5.55
2023-02-16T01:32:12.879Z,5.55
2023-02-16T01:34:40.103Z,5.56
2023-02-16T01:37:14.695Z,5.56
2023-02-16T01:39:42.081Z,5.57
2023-02-16T01:42:45.077Z,5.59
2023-02-16T01:45:18.921Z,5.60
2023-02-16T01:47:56.105Z,5.60
2023-02-16T01:50:28.833Z,5.61
2023-02-16T01:53:13.384Z,5.63
2023-02-16T01:55:47.276Z,5.63
2023-02-16T01:58:45.767Z,5.67
2023-02-16T02:01:52.878Z,5.65
2023-02-16T02:04:48.410Z,5.65
2023-02-16T02:07:31.871Z,5.67
2023-02-16T02:10:15.642Z,5.67
2023-02-16T02:13:40.984Z,5.69
2023-02-16T02:16:11.687Z,5.69
2023-02-16T02:18:39.240Z,5.64
2023-02-16T02:21:55.864Z,5.64
2023-02-16T02:24:49.014Z,5.63
2023-02-16T02:27:57.609Z,5.62
2023-02-16T02:30:48.358Z,5.61
2023-02-16T02:33:37.575Z,5.59
2023-02-16T02:36:34.249Z,5.58
2023-02-16T02:39:25.322Z,5.57
2023-02-16T02:42:06.965Z,5.57
2023-02-16T02:45:02.276Z,5.54
2023-02-16T02:47:43.054Z,5.53
2023-02-16T02:51:07.274Z,5.53
2023-02-16T02:53:50.283Z,5.52
2023-02-16T02:56:37.026Z,5.52
2023-02-16T02:59:26.524Z,5.52
2023-02-16T03:02:00.812Z,5.51
2023-02-16T03:04:31.224Z,5.52
2023-02-16T03:07:01.203Z,5.53
2023-02-16T03:09:28.704Z,5.52
2023-02-16T03:12:15.894Z,5.51
2023-02-16T03:14:51.049Z,5.49
2023-02-16T03:17:43.710Z,5.50
2023-02-16T03:20:33.692Z,5.52
2023-02-16T03:23:22.389Z,5.51
2023-02-16T03:26:10.998Z,5.50
2023-02-16T03:29:01.907Z,5.46
2023-02-16T03:31:35.274Z,5.45
2023-02-16T03:34:03.066Z,5.44
2023-02-16T03:36:34.212Z,5.44
2023-02-16T03:39:02.317Z,5.42
2023-02-16T03:41:34.483Z,5.40
2023-02-16T03:44:01.689Z,5.37
2023-02-16T03:46:28.864Z,5.38
2023-02-16T03:48:55.900Z,5.15
2023-02-16T03:51:23.082Z,5.25
2023-02-16T03:53:50.348Z,5.22
2023-02-16T03:56:17.462Z,5.30
2023-02-16T03:58:44.508Z,5.12
2023-02-16T04:01:12.086Z,5.34
2023-02-16T04:03:39.158Z,5.39
2023-02-16T04:06:06.848Z,5.43
2023-02-16T04:08:34.446Z,5.50
2023-02-16T04:11:21.901Z,5.55
2023-02-16T04:13:49.107Z,5.60
2023-02-16T04:16:16.175Z,5.61
2023-02-16T04:18:43.408Z,5.63
2023-02-16T04:21:10.485Z,5.64
2023-02-16T04:23:37.869Z,5.66
2023-02-16T04:26:05.495Z,5.67
2023-02-16T04:28:32.500Z,5.64
2023-02-16T04:30:59.798Z,5.67
2023-02-16T04:33:27.167Z,5.67
2023-02-16T04:35:54.263Z,5.64
2023-02-16T04:38:21.469Z,5.66
2023-02-16T04:40:48.593Z,5.66
2023-02-16T04:43:15.758Z,5.63
2023-02-16T04:45:43.151Z,5.63
2023-02-16T04:48:10.402Z,5.62
2023-02-16T04:50:37.581Z,5.64
2023-02-16T04:53:04.747Z,5.67
2023-02-16T04:55:32.000Z,5.71
2023-02-16T04:57:59.238Z,5.76
2023-02-16T05:00:26.588Z,5.80
2023-02-16T05:02:53.988Z,5.87
2023-02-16T05:05:21.033Z,5.90
2023-02-16T05:07:48.597Z,5.96
2023-02-16T05:10:15.592Z,5.99
2023-02-16T05:13:01.503Z,6.03
2023-02-16T05:15:28.744Z,6.07
2023-02-16T05:17:55.696Z,6.11
2023-02-16T05:20:43.054Z,6.14
2023-02-16T05:23:10.082Z,6.15
2023-02-16T05:25:37.301Z,6.17
2023-02-16T05:28:04.723Z,6.20
2023-02-16T05:30:32.359Z,6.22
2023-02-16T05:32:59.691Z,6.24
2023-02-16T05:35:26.884Z,6.26
2023-02-16T05:37:53.945Z,6.31
2023-02-16T05:40:21.223Z,6.32
2023-02-16T05:42:52.440Z,6.33
2023-02-16T05:45:19.766Z,6.35
2023-02-16T05:47:47.352Z,6.36
2023-02-16T05:50:14.755Z,6.40
2023-02-16T05:52:41.844Z,6.41
2023-02-16T05:55:08.925Z,6.42
2023-02-16T05:57:35.977Z,6.45
2023-02-16T06:00:05.251Z,6.45
2023-02-16T06:02:32.270Z,6.45
2023-02-16T06:04:59.406Z,6.46
2023-02-16T06:07:26.591Z,6.47
2023-02-16T06:09:53.582Z,6.48
2023-02-16T06:12:20.538Z,6.49
2023-02-16T06:14:47.770Z,6.51
2023-02-16T06:17:15.144Z,6.51
2023-02-16T06:19:42.115Z,6.53
2023-02-16T06:22:09.466Z,6.55
2023-02-16T06:24:37.237Z,6.54
2023-02-16T06:27:04.716Z,6.55
2023-02-16T06:29:32.118Z,6.57
2023-02-16T06:31:59.465Z,6.58
2023-02-16T06:34:26.502Z,6.60
2023-02-16T06:36:53.697Z,6.61
2023-02-16T06:39:20.981Z,6.63
2023-02-16T06:41:48.338Z,6.66
2023-02-16T06:44:16.734Z,6.69
2023-02-16T06:46:46.756Z,6.71
2023-02-16T06:49:20.620Z,6.75
2023-02-16T06:51:49.784Z,6.81
2023-02-16T06:54:18.222Z,6.84
2023-02-16T06:56:45.666Z,6.87
2023-02-16T06:59:13.565Z,6.85
2023-02-16T07:01:45.500Z,6.88
2023-02-16T07:04:18.253Z,6.89
2023-02-16T07:06:45.354Z,6.90
2023-02-16T07:09:13.114Z,6.92
2023-02-16T07:11:40.631Z,6.94
2023-02-16T07:14:07.828Z,6.95
2023-02-16T07:16:35.137Z,6.99
2023-02-16T07:19:02.309Z,6.99
2023-02-16T07:21:29.511Z,7.03
2023-02-16T07:23:56.623Z,7.08
2023-02-16T07:26:23.690Z,7.15
2023-02-16T07:28:51.005Z,7.24
2023-02-16T07:31:18.404Z,7.32
2023-02-16T07:33:45.733Z,7.39
2023-02-16T07:36:13.669Z,7.46
2023-02-16T07:38:43.801Z,7.52
2023-02-16T07:41:12.093Z,7.57
2023-02-16T07:43:39.564Z,7.65
2023-02-16T07:46:06.980Z,7.73
2023-02-16T07:48:34.592Z,7.81
2023-02-16T07:51:02.782Z,7.94
2023-02-16T07:53:30.432Z,8.02
2023-02-16T07:55:57.841Z,8.09
2023-02-16T07:58:27.905Z,8.15
2023-02-16T08:01:11.036Z,8.15
2023-02-16T08:03:39.320Z,8.14
2023-02-16T08:06:07.736Z,8.14
2023-02-16T08:08:35.869Z,8.12
2023-02-16T08:11:21.044Z,8.12
2023-02-16T08:13:49.499Z,8.13
2023-02-16T08:16:23.688Z,8.19
2023-02-16T08:18:52.448Z,8.24
2023-02-16T08:21:23.636Z,8.30
2023-02-16T08:24:03.997Z,8.33
2023-02-16T08:26:40.008Z,8.32
2023-02-16T08:29:10.155Z,8.33
2023-02-16T08:31:39.342Z,8.37
2023-02-16T08:34:07.356Z,8.40
2023-02-16T08:36:38.289Z,8.48
2023-02-16T08:39:12.117Z,8.58
2023-02-16T08:41:39.579Z,8.67
2023-02-16T08:44:08.458Z,8.80
2023-02-16T08:46:40.049Z,8.90
2023-02-16T08:49:09.208Z,8.99
2023-02-16T08:51:46.575Z,9.08
2023-02-16T08:54:19.517Z,9.10
2023-02-16T08:56:48.216Z,9.12
2023-02-16T08:59:17.537Z,9.09
2023-02-16T09:01:45.134Z,9.02
2023-02-16T09:04:14.108Z,8.96
2023-02-16T09:06:45.136Z,8.96
2023-02-16T09:09:13.230Z,8.96
2023-02-16T09:11:41.104Z,9.00
2023-02-16T09:14:09.382Z,9.00
2023-02-16T09:16:39.821Z,9.03
2023-02-16T09:19:07.414Z,9.01
2023-02-16T09:21:34.732Z,9.07
2023-02-16T09:24:04.546Z,9.12
2023-02-16T09:26:35.553Z,9.15
2023-02-16T09:29:03.875Z,9.24
2023-02-16T09:31:35.287Z,9.33
2023-02-16T09:34:20.939Z,9.45
2023-02-16T09:36:49.766Z,9.52
2023-02-16T09:39:19.251Z,9.57
2023-02-16T09:42:24.616Z,9.59
2023-02-16T09:45:15.594Z,9.64
2023-02-16T09:47:46.379Z,9.66
2023-02-16T09:50:50.267Z,9.73
2023-02-16T09:53:24.418Z,9.80
2023-02-16T09:56:20.153Z,9.90
2023-02-16T09:58:56.312Z,9.94
2023-02-16T10:01:41.899Z,10.00
2023-02-16T10:04:31.370Z,10.02
2023-02-16T10:07:40.742Z,9.94
2023-02-16T10:10:10.951Z,9.88
2023-02-16T10:12:46.866Z,9.82
2023-02-16T10:15:22.365Z,9.76
2023-02-16T10:18:20.435Z,9.78
2023-02-16T10:20:52.356Z,9.81
2023-02-16T10:23:34.777Z,9.78
2023-02-16T10:26:16.495Z,9.75
2023-02-16T10:28:51.329Z,9.80
2023-02-16T10:31:43.827Z,9.92
2023-02-16T10:34:34.173Z,10.05
2023-02-16T10:37:31.735Z,10.19
2023-02-16T10:40:27.876Z,10.29
2023-02-16T10:43:24.457Z,10.35
2023-02-16T10:46:01.821Z,10.48
2023-02-16T10:48:29.291Z,10.64
2023-02-16T10:51:07.811Z,10.79
2023-02-16T10:53:52.908Z,10.85
2023-02-16T10:56:38.666Z,10.82
2023-02-16T10:59:18.367Z,10.71
2023-02-16T11:01:59.132Z,10.59
2023-02-16T11:04:44.713Z,10.45
2023-02-16T11:07:16.002Z,10.34
2023-02-16T11:09:46.630Z,10.24
2023-02-16T11:12:38.413Z,10.10
2023-02-16T11:15:23.975Z,9.97
2023-02-16T11:18:05.242Z,9.85
2023-02-16T11:20:44.998Z,9.77
2023-02-16T11:23:24.807Z,9.74
2023-02-16T11:26:03.645Z,9.68
2023-02-16T11:28:39.303Z,9.67
2023-02-16T11:31:39.582Z,9.77
2023-02-16T11:34:37.083Z,9.94
2023-02-16T11:37:12.765Z,10.17
2023-02-16T11:39:48.430Z,10.37
2023-02-16T11:42:37.740Z,10.41
2023-02-16T11:45:07.512Z,10.41
2023-02-16T11:47:42.069Z,10.36
2023-02-16T11:50:31.509Z,10.41
2023-02-16T11:53:26.019Z,10.64
2023-02-16T11:56:17.206Z,10.84
2023-02-16T11:59:02.991Z,10.96
2023-02-16T12:02:00.907Z,11.08
2023-02-16T12:04:41.335Z,11.17
2023-02-16T12:07:27.718Z,11.45
2023-02-16T12:10:19.025Z,11.70
2023-02-16T12:13:04.074Z,11.89
2023-02-16T12:15:55.541Z,12.08
2023-02-16T12:19:11.226Z,12.28
2023-02-16T12:22:28.755Z,12.47
2023-02-16T12:25:22.465Z,12.59
2023-02-16T12:28:01.686Z,12.75
2023-02-16T12:31:00.267Z,12.83
2023-02-16T12:33:47.949Z,12.83
2023-02-16T12:36:29.052Z,12.81
2023-02-16T12:39:23.983Z,12.78
2023-02-16T12:42:14.404Z,12.71
2023-02-16T12:44:48.749Z,12.68
2023-02-16T12:47:30.063Z,12.74
2023-02-16T12:50:03.835Z,12.67
2023-02-16T12:52:57.885Z,12.57
2023-02-16T12:55:59.169Z,12.44
2023-02-16T12:58:43.915Z,12.49
2023-02-16T13:01:23.570Z,12.53
2023-02-16T13:04:21.826Z,12.56
2023-02-16T13:07:18.136Z,12.67
2023-02-16T13:10:11.546Z,12.75
2023-02-16T13:13:21.186Z,12.90
2023-02-16T13:15:58.660Z,13.03
2023-02-16T13:18:40.316Z,13.20
2023-02-16T13:25:23.018Z,13.39
2023-02-16T13:25:46.453Z,13.34
2023-02-16T13:28:26.060Z,13.45
2023-02-16T13:31:26.167Z,13.48
2023-02-16T13:34:42.545Z,13.58
2023-02-16T13:37:24.562Z,13.65
2023-02-16T13:40:19.496Z,13.70
2023-02-16T13:43:12.544Z,13.74
2023-02-16T13:45:44.360Z,13.74
2023-02-16T13:48:37.666Z,13.82
2023-02-16T13:51:16.761Z,13.88
2023-02-16T13:53:52.839Z,13.91
2023-02-16T13:56:29.498Z,14.03
2023-02-16T13:59:00.128Z,14.15
2023-02-16T14:01:38.834Z,14.21
2023-02-16T14:04:33.796Z,14.28
2023-02-16T14:07:04.017Z,14.34
2023-02-16T14:09:45.940Z,14.40
2023-02-16T14:12:17.151Z,14.42
2023-02-16T14:14:56.613Z,14.39
2023-02-16T14:17:28.783Z,14.42
2023-02-16T14:20:25.170Z,14.45
2023-02-16T14:23:00.181Z,14.47
2023-02-16T14:25:30.909Z,14.46
2023-02-16T14:28:02.989Z,14.41
2023-02-16T14:30:50.057Z,14.40
2023-02-16T14:33:31.609Z,14.34
2023-02-16T14:35:58.674Z,14.30
2023-02-16T14:38:45.873Z,14.30
2023-02-16T14:41:36.893Z,14.24
2023-02-16T14:44:07.059Z,14.21
2023-02-16T14:46:42.877Z,14.21
2023-02-16T14:50:06.582Z,14.23
2023-02-16T14:53:48.390Z,14.23
2023-02-16T14:56:42.939Z,14.27
2023-02-16T14:59:27.739Z,14.33
2023-02-16T15:01:55.849Z,14.38
2023-02-16T15:04:31.865Z,14.42
2023-02-16T15:07:05.366Z,14.52
2023-02-16T15:09:34.941Z,14.62
2023-02-16T15:12:22.461Z,14.68
2023-02-16T15:14:50.536Z,14.64
2023-02-16T15:17:29.020Z,14.58
2023-02-16T15:20:04.149Z,14.51
2023-02-16T15:22:31.803Z,14.42
2023-02-16T15:25:24.560Z,14.33
2023-02-16T15:27:59.183Z,14.32
2023-02-16T15:30:35.947Z,14.33
2023-02-16T15:33:25.725Z,14.30
2023-02-16T15:36:13.394Z,14.24
2023-02-16T15:38:54.930Z,14.19
2023-02-16T15:41:39.022Z,14.15
2023-02-16T15:44:36.793Z,14.08
2023-02-16T15:47:14.946Z,14.00
2023-02-16T15:49:43.679Z,13.98
2023-02-16T15:52:34.891Z,13.99
2023-02-16T15:55:06.089Z,13.89
2023-02-16T15:57:38.090Z,13.80
2023-02-16T16:00:21.350Z,13.77
2023-02-16T16:02:58.410Z,13.69
2023-02-16T16:05:35.522Z,13.59
2023-02-16T16:08:03.569Z,13.55
2023-02-16T16:10:36.458Z,13.48
2023-02-16T16:13:19.068Z,13.42
2023-02-16T16:15:50.201Z,13.37
2023-02-16T16:18:43.936Z,13.30
2023-02-16T16:21:34.062Z,13.21
2023-02-16T16:24:02.333Z,13.13
2023-02-16T16:26:35.999Z,13.06
2023-02-16T16:29:04.504Z,13.00
2023-02-16T16:31:38.662Z,12.96
2023-02-16T16:34:10.256Z,12.91
2023-02-16T16:36:56.027Z,12.84
2023-02-16T16:39:33.054Z,12.73
2023-02-16T16:42:00.358Z,12.63
2023-02-16T16:44:41.996Z,12.53
2023-02-16T16:47:30.516Z,12.44
2023-02-16T16:50:09.403Z,12.32
2023-02-16T16:52:43.042Z,12.23
2023-02-16T16:55:19.330Z,12.16
2023-02-16T16:57:51.928Z,12.08
2023-02-16T17:00:21.115Z,12.02
2023-02-16T17:02:48.780Z,11.96
2023-02-16T17:05:16.451Z,11.94
2023-02-16T17:07:43.841Z,11.89
2023-02-16T17:10:11.134Z,11.87
2023-02-16T17:12:38.638Z,11.83
2023-02-16T17:15:08.072Z,11.79
2023-02-16T17:17:35.596Z,11.78
2023-02-16T17:20:02.642Z,11.74
2023-02-16T17:22:29.772Z,11.72
2023-02-16T17:24:59.089Z,11.57
2023-02-16T17:27:26.214Z,11.67
2023-02-16T17:29:53.421Z,11.67
2023-02-16T17:32:23.608Z,11.61
2023-02-16T17:34:52.496Z,11.64
2023-02-16T17:37:19.918Z,11.61
2023-02-16T17:39:47.282Z,11.62
2023-02-16T17:42:14.715Z,11.62
2023-02-16T17:44:41.912Z,11.61
2023-02-16T17:47:15.548Z,11.61
2023-02-16T17:49:42.801Z,11.47
2023-02-16T17:52:11.850Z,11.49
2023-02-16T17:54:39.611Z,11.45
2023-02-16T17:57:06.848Z,11.45
2023-02-16T17:59:34.283Z,11.46
2023-02-16T18:02:01.906Z,11.46
2023-02-16T18:04:29.253Z,11.46
2023-02-16T18:06:56.734Z,11.45
2023-02-16T18:09:24.680Z,11.47
2023-02-16T18:11:52.048Z,11.47
2023-02-16T18:14:19.515Z,11.47
2023-02-16T18:16:52.211Z,11.46
2023-02-16T18:19:20.044Z,11.46
2023-02-16T18:21:47.135Z,11.46
2023-02-16T18:24:14.201Z,11.47
2023-02-16T18:26:41.244Z,11.47
2023-02-16T18:29:09.863Z,11.45
2023-02-16T18:31:37.796Z,11.44
2023-02-16T18:34:06.043Z,11.45
2023-02-16T18:36:35.785Z,11.41
2023-02-16T18:39:04.525Z,11.45
2023-02-16T18:41:33.900Z,11.45
2023-02-16T18:44:01.538Z,11.46
2023-02-16T18:46:28.853Z,11.46
2023-02-16T18:48:57.288Z,11.45
2023-02-16T18:51:28.949Z,11.46
2023-02-16T18:53:57.872Z,11.46
2023-02-16T18:56:25.773Z,11.45
2023-02-16T18:58:53.368Z,11.45
2023-02-16T19:01:33.335Z,11.48
2023-02-16T19:04:02.426Z,11.49
2023-02-16T19:06:29.858Z,11.50
2023-02-16T19:08:58.986Z,11.46
2023-02-16T19:11:28.230Z,11.46
2023-02-16T19:13:55.297Z,11.45
2023-02-16T19:16:22.811Z,11.47
2023-02-16T19:18:50.551Z,11.46
2023-02-16T19:21:17.727Z,11.44
2023-02-16T19:23:45.585Z,11.45
2023-02-16T19:26:19.496Z,11.46
2023-02-16T19:28:47.314Z,11.43
2023-02-16T19:31:26.628Z,11.44
2023-02-16T19:33:54.344Z,11.42
2023-02-16T19:36:23.429Z,11.24
2023-02-16T19:38:53.393Z,11.32
2023-02-16T19:41:38.093Z,11.32
2023-02-16T19:44:05.698Z,11.30
2023-02-16T19:46:34.519Z,11.28
2023-02-16T19:49:02.300Z,11.26
2023-02-16T19:51:30.183Z,11.25
2023-02-16T19:53:58.338Z,11.24
2023-02-16T19:56:27.197Z,11.21
2023-02-16T19:58:56.975Z,11.19
2023-02-16T20:01:27.361Z,11.19
2023-02-16T20:03:56.616Z,11.18
2023-02-16T20:06:29.768Z,11.18
2023-02-16T20:08:57.548Z,11.16
2023-02-16T20:11:28.157Z,11.15
2023-02-16T20:13:56.602Z,11.14
2023-02-16T20:16:24.424Z,11.11
2023-02-16T20:18:51.872Z,11.10
2023-02-16T20:21:23.369Z,11.09
2023-02-16T20:23:53.913Z,11.10
2023-02-16T20:26:25.579Z,11.09
2023-02-16T20:28:52.753Z,11.07
2023-02-16T20:31:44.731Z,11.08
2023-02-16T20:34:11.971Z,11.06
2023-02-16T20:36:39.414Z,11.07
2023-02-16T20:39:08.311Z,11.09
2023-02-16T20:41:36.096Z,11.08
2023-02-16T20:44:04.546Z,11.09
2023-02-16T20:46:31.702Z,11.07
2023-02-16T20:48:58.835Z,11.09
2023-02-16T20:51:26.300Z,11.11
2023-02-16T20:53:53.579Z,11.12
2023-02-16T20:56:26.002Z,11.13
2023-02-16T20:58:58.927Z,11.15
2023-02-16T21:01:39.455Z,11.17
2023-02-16T21:04:08.294Z,11.18
2023-02-16T21:06:36.978Z,11.20
2023-02-16T21:09:07.558Z,11.22
2023-02-16T21:11:37.180Z,11.23
2023-02-16T21:14:06.277Z,11.25
2023-02-16T21:16:34.158Z,11.27
2023-02-16T21:19:02.077Z,11.31
2023-02-16T21:21:30.086Z,11.34
2023-02-16T21:23:57.213Z,11.35
2023-02-16T21:26:25.487Z,11.35
2023-02-16T21:28:53.259Z,11.37
2023-02-16T21:31:24.137Z,11.39
2023-02-16T21:33:52.909Z,11.43
2023-02-16T21:36:25.961Z,11.46
2023-02-16T21:38:53.610Z,11.48
2023-02-16T21:41:29.089Z,11.50
2023-02-16T21:44:07.028Z,11.51
2023-02-16T21:46:40.960Z,11.54
2023-02-16T21:49:17.336Z,11.54
2023-02-16T21:51:46.744Z,11.56
2023-02-16T21:54:17.316Z,11.59
2023-02-16T21:56:50.343Z,11.60
2023-02-16T21:59:19.993Z,11.61
2023-02-16T22:01:53.309Z,11.64
2023-02-16T22:04:22.750Z,11.64
2023-02-16T22:06:51.336Z,11.63
2023-02-16T22:09:22.532Z,11.64
2023-02-16T22:11:50.361Z,11.65
2023-02-16T22:14:17.422Z,11.67
2023-02-16T22:16:46.766Z,11.67
2023-02-16T22:19:17.592Z,11.67
2023-02-16T22:21:47.774Z,11.70
2023-02-16T22:24:17.905Z,11.73
2023-02-16T22:26:49.671Z,11.72
2023-02-16T22:29:18.001Z,11.72
2023-02-16T22:31:49.884Z,11.72
2023-02-16T22:34:21.259Z,11.73
2023-02-16T22:36:49.256Z,11.73
2023-02-16T22:39:18.164Z,11.73
2023-02-16T22:41:45.397Z,11.74
2023-02-16T22:44:12.995Z,11.74
2023-02-16T22:46:40.405Z,11.74
2023-02-16T22:49:09.061Z,11.73
2023-02-16T22:51:37.704Z,11.73
2023-02-16T22:54:06.226Z,11.73
2023-02-16T22:56:34.828Z,11.72
2023-02-16T22:59:02.003Z,11.73
2023-02-16T23:01:30.536Z,11.72
2023-02-16T23:04:00.733Z,11.70
2023-02-16T23:06:32.517Z,11.68
2023-02-16T23:09:06.321Z,11.69
2023-02-16T23:11:35.647Z,11.69
2023-02-16T23:14:02.716Z,11.67
2023-02-16T23:16:30.129Z,11.67
2023-02-16T23:18:59.537Z,11.68
2023-02-16T23:21:32.667Z,11.68
2023-02-16T23:24:00.273Z,11.68
2023-02-16T23:26:31.015Z,11.67
2023-02-16T23:29:02.148Z,11.69
2023-02-16T23:31:35.783Z,11.68
2023-02-16T23:34:05.129Z,11.69
2023-02-16T23:36:35.648Z,11.69
2023-02-16T23:39:23.692Z,11.70
2023-02-16T23:41:51.023Z,11.69
2023-02-16T23:44:19.487Z,11.71
2023-02-16T23:46:46.841Z,11.71
2023-02-16T23:49:14.261Z,11.71
2023-02-16T23:51:41.440Z,11.70
2023-02-16T23:54:10.940Z,11.70
2023-02-16T23:56:39.607Z,11.72
2023-02-16T23:59:06.776Z,11.71
